createdAt,value
2023-03-21T00:00:27.059Z,14.77
2023-03-21T00:03:16.757Z,15.40
2023-03-21T00:06:08.378Z,14.23
2023-03-21T00:08:57.697Z,14.70
2023-03-21T00:11:48.542Z,14.37
2023-03-21T00:14:39.671Z,13.27
2023-03-21T00:17:33.103Z,13.00
2023-03-21T00:20:24.672Z,12.83
2023-03-21T00:23:14.234Z,12.70
2023-03-21T00:26:04.100Z,13.03
2023-03-21T00:28:54.928Z,13.33
2023-03-21T00:31:44.758Z,11.90
2023-03-21T00:34:43.013Z,13.03
2023-03-21T00:37:38.612Z,13.67
2023-03-21T00:40:35.017Z,12.53
2023-03-21T00:43:31.022Z,12.50
2023-03-21T00:46:25.160Z,11.50
2023-03-21T00:49:14.765Z,12.50
2023-03-21T00:52:37.992Z,12.67
2023-03-21T00:55:19.442Z,13.40
2023-03-21T00:58:09.898Z,12.43
2023-03-21T01:00:59.351Z,12.80
2023-03-21T01:04:06.259Z,12.23
2023-03-21T01:06:56.404Z,12.37
2023-03-21T01:09:46.024Z,13.00
2023-03-21T01:12:35.404Z,13.20
2023-03-21T01:15:24.879Z,13.03
2023-03-21T01:18:14.406Z,13.47
2023-03-21T01:21:09.642Z,13.37
2023-03-21T01:24:00.130Z,13.83
2023-03-21T01:26:49.941Z,13.37
2023-03-21T01:29:39.334Z,13.67
2023-03-21T01:32:29.096Z,12.90
2023-03-21T01:35:18.698Z,13.13
2023-03-21T01:38:10.285Z,13.43
2023-03-21T01:41:08.659Z,14.07
2023-03-21T01:44:04.599Z,13.33
2023-03-21T01:47:12.552Z,15.20
2023-03-21T01:50:05.548Z,13.93
2023-03-21T01:52:55.760Z,15.40
2023-03-21T01:55:48.189Z,15.83
2023-03-21T01:58:38.816Z,15.53
2023-03-21T02:01:28.375Z,15.70
2023-03-21T02:04:22.947Z,14.97
2023-03-21T02:07:17.088Z,15.40
2023-03-21T02:18:10.016Z,14.37
2023-03-21T02:21:02.237Z,13.90
2023-03-21T02:26:45.077Z,15.77
2023-03-21T02:41:27.444Z,15.20
2023-03-21T02:44:09.363Z,14.73
2023-03-21T02:47:02.867Z,15.20
2023-03-21T02:58:45.041Z,14.73
2023-03-21T03:01:26.292Z,13.90
2023-03-21T03:07:02.749Z,13.83
2023-03-21T03:36:05.053Z,11.67
2023-03-21T03:55:46.324Z,13.17
2023-03-21T04:07:15.100Z,10.87
2023-03-21T04:09:48.676Z,10.97
2023-03-21T04:12:21.754Z,11.80
2023-03-21T04:15:09.961Z,10.93
2023-03-21T04:17:48.615Z,11.50
2023-03-21T04:23:04.611Z,10.87
2023-03-21T04:25:56.243Z,10.60
2023-03-21T04:31:24.998Z,10.93
2023-03-21T04:39:55.470Z,9.50
2023-03-21T04:42:46.149Z,10.50
2023-03-21T04:45:38.705Z,9.40
2023-03-21T04:48:28.231Z,9.20
2023-03-21T04:51:21.860Z,8.70
2023-03-21T04:57:06.814Z,7.80
2023-03-21T04:59:57.549Z,8.33
2023-03-21T05:02:47.647Z,7.83
2023-03-21T05:05:39.323Z,8.10
2023-03-21T05:08:32.187Z,8.30
2023-03-21T05:11:23.649Z,7.53
2023-03-21T05:14:22.025Z,7.43
2023-03-21T05:17:16.084Z,6.80
2023-03-21T05:20:10.139Z,6.73
2023-03-21T05:23:02.040Z,7.07
2023-03-21T05:25:53.800Z,6.37
2023-03-21T05:28:45.201Z,6.13
2023-03-21T05:31:36.948Z,6.60
2023-03-21T05:34:28.084Z,7.03
2023-03-21T05:37:18.106Z,6.70
2023-03-21T05:40:09.884Z,6.33
2023-03-21T05:43:03.282Z,7.47
2023-03-21T05:45:53.919Z,7.20
2023-03-21T05:48:47.965Z,7.00
2023-03-21T05:51:40.957Z,7.27
2023-03-21T05:54:33.938Z,6.97
2023-03-21T05:57:23.725Z,6.97
2023-03-21T06:00:14.786Z,7.30
2023-03-21T06:03:07.445Z,7.20
2023-03-21T06:05:59.102Z,7.30
2023-03-21T06:08:50.701Z,6.43
2023-03-21T06:11:43.999Z,7.23
2023-03-21T06:14:34.104Z,6.90
2023-03-21T06:17:26.172Z,7.13
2023-03-21T06:20:15.866Z,7.30
2023-03-21T06:23:06.845Z,6.50
2023-03-21T06:25:56.927Z,6.90
2023-03-21T06:28:52.838Z,7.83
2023-03-21T06:31:42.214Z,6.93
2023-03-21T06:34:32.056Z,7.63
2023-03-21T06:37:27.509Z,7.00
2023-03-21T06:40:19.450Z,6.77
2023-03-21T06:43:09.407Z,7.40
2023-03-21T06:45:58.735Z,7.10
2023-03-21T06:48:50.041Z,6.57
2023-03-21T06:51:40.233Z,6.80
2023-03-21T06:54:30.338Z,6.70
2023-03-21T06:57:22.311Z,6.47
2023-03-21T07:00:16.532Z,7.13
2023-03-21T07:03:06.721Z,6.90
2023-03-21T07:05:56.701Z,6.60
2023-03-21T07:08:49.360Z,6.67
2023-03-21T07:11:42.984Z,6.60
2023-03-21T07:14:36.584Z,6.80
2023-03-21T07:17:26.964Z,7.37
2023-03-21T07:20:17.955Z,6.63
2023-03-21T07:23:08.025Z,6.27
2023-03-21T07:25:59.905Z,6.67
2023-03-21T07:28:50.791Z,6.17
2023-03-21T07:31:45.328Z,6.73
2023-03-21T07:34:35.693Z,6.70
2023-03-21T07:37:27.120Z,6.23
2023-03-21T07:40:17.700Z,6.33
2023-03-21T07:43:08.128Z,6.63
2023-03-21T07:45:59.967Z,6.70
2023-03-21T07:48:52.532Z,6.37
2023-03-21T07:51:42.866Z,6.73
2023-03-21T07:54:36.679Z,6.17
2023-03-21T07:57:28.319Z,6.30
2023-03-21T08:00:24.271Z,6.20
2023-03-21T08:03:16.924Z,6.17
2023-03-21T08:06:11.159Z,5.90
2023-03-21T08:09:04.206Z,12.80
2023-03-21T08:11:54.407Z,6.07
2023-03-21T08:14:44.980Z,5.80
2023-03-21T08:17:42.639Z,5.47
2023-03-21T08:20:33.601Z,4.77
2023-03-21T08:23:35.010Z,4.53
2023-03-21T08:26:27.630Z,4.90
2023-03-21T08:29:17.672Z,4.23
2023-03-21T08:32:08.836Z,4.10
2023-03-21T08:35:01.822Z,4.50
2023-03-21T08:37:55.930Z,4.30
2023-03-21T08:40:50.339Z,4.47
2023-03-21T08:43:42.000Z,4.07
2023-03-21T08:46:33.539Z,5.13
2023-03-21T08:49:27.234Z,4.43
2023-03-21T08:52:19.660Z,4.23
2023-03-21T08:55:17.856Z,5.30
2023-03-21T08:58:10.089Z,6.00
2023-03-21T09:01:02.572Z,4.97
2023-03-21T09:04:01.823Z,4.67
2023-03-21T09:06:51.741Z,4.33
2023-03-21T09:09:42.076Z,3.70
2023-03-21T09:12:31.990Z,3.67
2023-03-21T09:15:25.118Z,3.17
2023-03-21T09:18:16.867Z,3.17
2023-03-21T09:21:13.670Z,3.07
2023-03-21T09:24:11.299Z,2.73
2023-03-21T09:27:02.875Z,2.97
2023-03-21T09:29:54.465Z,2.67
2023-03-21T09:32:49.184Z,3.43
2023-03-21T09:35:42.127Z,3.17
2023-03-21T09:38:38.504Z,3.30
2023-03-21T09:41:48.546Z,3.30
2023-03-21T09:44:57.095Z,3.17
2023-03-21T09:47:57.981Z,3.53
2023-03-21T09:50:48.510Z,3.20
2023-03-21T09:53:44.241Z,3.30
2023-03-21T09:56:41.038Z,3.37
2023-03-21T09:59:47.056Z,3.13
2023-03-21T10:02:39.980Z,3.10
2023-03-21T10:05:47.902Z,3.27
2023-03-21T10:08:42.387Z,3.20
2023-03-21T10:11:37.093Z,3.00
2023-03-21T10:14:33.766Z,3.43
2023-03-21T10:17:35.714Z,3.70
2023-03-21T10:20:32.904Z,3.20
2023-03-21T10:23:26.963Z,3.00
2023-03-21T10:26:21.087Z,3.60
2023-03-21T10:29:20.598Z,3.00
2023-03-21T10:32:16.305Z,3.47
2023-03-21T10:35:10.743Z,3.50
2023-03-21T10:38:07.948Z,2.90
2023-03-21T10:40:58.401Z,3.30
2023-03-21T10:44:07.680Z,3.40
2023-03-21T10:46:59.250Z,3.90
2023-03-21T10:50:06.328Z,4.67
2023-03-21T10:53:05.363Z,4.50
2023-03-21T10:56:02.205Z,8.97
2023-03-21T10:58:53.020Z,5.77
2023-03-21T11:01:48.000Z,4.33
2023-03-21T11:05:01.489Z,3.17
2023-03-21T11:07:59.305Z,3.17
2023-03-21T11:11:02.226Z,3.40
2023-03-21T11:14:00.376Z,2.83
2023-03-21T11:16:51.062Z,2.63
2023-03-21T11:19:50.927Z,2.47
2023-03-21T11:22:48.168Z,2.50
2023-03-21T11:25:48.070Z,2.60
2023-03-21T11:28:45.435Z,2.30
2023-03-21T11:31:48.212Z,2.60
2023-03-21T11:34:48.993Z,2.30
2023-03-21T11:37:46.977Z,2.33
2023-03-21T11:40:41.688Z,2.87
2023-03-21T11:43:39.652Z,2.10
2023-03-21T11:46:43.065Z,2.10
2023-03-21T11:49:34.113Z,2.30
2023-03-21T11:52:35.140Z,2.43
2023-03-21T11:55:46.911Z,2.53
2023-03-21T11:58:47.195Z,2.63
2023-03-21T12:01:49.892Z,1.90
2023-03-21T12:04:47.312Z,2.00
2023-03-21T12:07:52.794Z,1.90
2023-03-21T12:10:52.820Z,2.00
2023-03-21T12:13:54.765Z,2.80
2023-03-21T12:16:59.208Z,2.77
2023-03-21T12:20:25.256Z,2.73
2023-03-21T12:23:47.414Z,2.83
2023-03-21T12:26:47.241Z,2.67
2023-03-21T12:30:15.147Z,3.10
2023-03-21T12:33:27.689Z,2.30
2023-03-21T12:36:59.248Z,2.40
2023-03-21T12:39:52.198Z,2.20
2023-03-21T12:43:16.980Z,2.50
2023-03-21T12:46:32.890Z,2.57
2023-03-21T12:49:32.815Z,2.30
2023-03-21T12:52:27.473Z,2.27
2023-03-21T12:55:23.967Z,1.93
2023-03-21T12:58:25.284Z,3.27
2023-03-21T13:01:19.292Z,5.57
2023-03-21T13:04:49.190Z,9.10
2023-03-21T13:07:46.198Z,4.47
2023-03-21T13:10:38.287Z,3.63
2023-03-21T13:13:39.356Z,2.53
2023-03-21T13:16:35.634Z,2.30
2023-03-21T13:19:34.937Z,2.20
2023-03-21T13:22:29.488Z,2.00
2023-03-21T13:25:25.946Z,1.93
2023-03-21T13:28:22.977Z,2.10
2023-03-21T13:31:50.635Z,2.10
2023-03-21T13:34:48.423Z,2.10
2023-03-21T13:37:42.979Z,1.67
2023-03-21T13:44:21.615Z,1.97
2023-03-21T13:47:31.609Z,2.00
2023-03-21T13:51:02.403Z,2.20
2023-03-21T13:54:03.417Z,1.90
2023-03-21T13:57:01.708Z,1.70
2023-03-21T13:59:51.317Z,2.10
2023-03-21T14:02:58.450Z,2.10
2023-03-21T14:05:53.675Z,2.03
2023-03-21T14:08:47.363Z,2.10
2023-03-21T14:11:44.291Z,2.20
2023-03-21T14:14:40.617Z,2.40
2023-03-21T14:17:32.378Z,2.00
2023-03-21T14:20:27.793Z,1.83
2023-03-21T14:23:28.371Z,1.93
2023-03-21T14:26:25.444Z,1.60
2023-03-21T14:29:26.113Z,2.33
2023-03-21T14:32:32.702Z,2.00
2023-03-21T14:35:23.683Z,2.13
2023-03-21T14:38:24.784Z,2.00
2023-03-21T14:41:29.016Z,2.03
2023-03-21T14:44:26.082Z,1.73
2023-03-21T14:47:22.399Z,1.70
2023-03-21T14:50:20.732Z,1.83
2023-03-21T14:53:18.300Z,2.40
2023-03-21T14:56:18.543Z,2.50
2023-03-21T14:59:11.184Z,2.50
2023-03-21T15:02:07.151Z,3.43
2023-03-21T15:05:00.269Z,3.63
2023-03-21T15:07:57.645Z,3.43
2023-03-21T15:11:06.844Z,2.63
2023-03-21T15:14:04.695Z,2.43
2023-03-21T15:16:58.923Z,2.97
2023-03-21T15:19:51.441Z,3.00
2023-03-21T15:22:52.061Z,3.37
2023-03-21T15:25:45.343Z,3.00
2023-03-21T15:28:45.945Z,2.40
2023-03-21T15:31:45.474Z,2.40
2023-03-21T15:34:38.416Z,2.00
2023-03-21T15:37:36.849Z,2.13
2023-03-21T15:40:31.929Z,2.00
2023-03-21T15:43:26.390Z,2.00
2023-03-21T15:46:35.281Z,1.77
2023-03-21T15:49:31.618Z,1.80
2023-03-21T15:52:23.903Z,1.90
2023-03-21T15:55:27.596Z,1.70
2023-03-21T15:58:24.177Z,1.80
2023-03-21T16:01:19.386Z,1.70
2023-03-21T16:04:13.801Z,2.07
2023-03-21T16:07:18.085Z,1.93
2023-03-21T16:10:20.740Z,1.80
2023-03-21T16:13:15.553Z,2.00
2023-03-21T16:17:13.777Z,2.60
2023-03-21T16:21:04.142Z,2.70
2023-03-21T16:29:15.364Z,3.30
2023-03-21T16:32:54.926Z,2.77
2023-03-21T16:36:31.735Z,3.60
2023-03-21T16:39:53.905Z,3.33
2023-03-21T16:43:07.302Z,3.73
2023-03-21T16:47:03.568Z,4.33
2023-03-21T16:50:49.708Z,4.10
2023-03-21T16:57:44.222Z,4.00
2023-03-21T17:01:23.108Z,3.83
2023-03-21T17:09:11.301Z,3.67
2023-03-21T17:12:49.856Z,4.10
2023-03-21T17:15:43.241Z,2.00
2023-03-21T17:18:33.950Z,2.13
2023-03-21T17:21:27.104Z,2.43
2023-03-21T17:24:19.923Z,2.10
2023-03-21T17:27:16.460Z,2.20
2023-03-21T17:30:24.498Z,2.50
2023-03-21T17:33:16.406Z,2.20
2023-03-21T17:36:10.942Z,2.20
2023-03-21T17:39:31.381Z,3.27
2023-03-21T17:46:16.184Z,2.47
2023-03-21T17:49:09.780Z,2.40
2023-03-21T17:52:00.353Z,2.30
2023-03-21T17:54:50.547Z,2.87
2023-03-21T17:57:42.301Z,2.97
2023-03-21T18:00:38.794Z,3.20
2023-03-21T18:03:33.706Z,3.60
2023-03-21T18:06:29.592Z,3.20
2023-03-21T18:09:22.178Z,4.03
2023-03-21T18:12:12.750Z,4.70
2023-03-21T18:15:12.902Z,4.67
2023-03-21T18:18:08.757Z,5.23
2023-03-21T18:21:01.381Z,4.90
2023-03-21T18:23:53.379Z,4.27
2023-03-21T18:26:46.154Z,4.87
2023-03-21T18:30:22.114Z,5.57
2023-03-21T18:32:49.890Z,5.10
2023-03-21T18:35:46.347Z,4.30
2023-03-21T18:38:36.843Z,4.10
2023-03-21T18:41:31.206Z,4.93
2023-03-21T18:44:25.271Z,4.30
2023-03-21T18:47:17.535Z,3.90
2023-03-21T18:50:14.782Z,3.50
2023-03-21T18:53:10.201Z,4.47
2023-03-21T18:56:01.549Z,3.40
2023-03-21T18:58:56.167Z,3.43
2023-03-21T19:01:49.660Z,3.70
2023-03-21T19:04:41.733Z,4.17
2023-03-21T19:07:35.520Z,3.30
2023-03-21T19:10:29.282Z,3.53
2023-03-21T19:13:20.682Z,3.37
2023-03-21T19:16:12.244Z,3.60
2023-03-21T19:19:04.538Z,3.20
2023-03-21T19:21:56.948Z,3.23
2023-03-21T19:24:47.888Z,3.00
2023-03-21T19:27:41.750Z,2.70
2023-03-21T19:30:38.675Z,2.90
2023-03-21T19:33:30.379Z,2.70
2023-03-21T19:36:23.226Z,2.97
2023-03-21T19:39:18.746Z,2.90
2023-03-21T19:42:16.937Z,2.87
2023-03-21T19:45:12.584Z,2.60
2023-03-21T19:48:04.119Z,2.70
2023-03-21T19:54:09.924Z,3.20
2023-03-21T19:57:02.997Z,3.20
2023-03-21T20:00:01.449Z,3.40
2023-03-21T20:02:56.217Z,3.20
2023-03-21T20:05:52.821Z,3.50
2023-03-21T20:12:01.660Z,3.47
2023-03-21T20:15:06.947Z,3.90
2023-03-21T20:18:15.909Z,3.67
2023-03-21T20:21:16.931Z,3.40
2023-03-21T20:24:12.424Z,3.50
2023-03-21T20:27:05.496Z,3.60
2023-03-21T20:30:08.649Z,3.70
2023-03-21T20:33:14.084Z,3.67
2023-03-21T20:36:38.542Z,3.43
2023-03-21T20:39:21.523Z,3.23
2023-03-21T20:42:12.930Z,3.60
2023-03-21T20:45:04.395Z,3.83
2023-03-21T20:48:04.451Z,3.50
2023-03-21T20:51:01.210Z,3.10
2023-03-21T20:53:53.653Z,3.70
2023-03-21T20:56:44.690Z,3.63
2023-03-21T20:59:36.364Z,3.40
2023-03-21T21:02:27.444Z,3.57
2023-03-21T21:05:31.399Z,4.20
2023-03-21T21:08:37.598Z,4.17
2023-03-21T21:14:41.312Z,4.43
2023-03-21T21:18:01.981Z,4.50
2023-03-21T21:20:47.329Z,5.10
2023-03-21T21:23:40.909Z,5.57
2023-03-21T21:26:34.909Z,4.57
2023-03-21T21:29:26.211Z,4.23
2023-03-21T21:32:19.251Z,3.87
2023-03-21T21:35:10.345Z,4.30
2023-03-21T21:38:00.589Z,5.10
2023-03-21T21:40:56.361Z,4.00
2023-03-21T21:43:46.704Z,4.67
2023-03-21T21:46:36.897Z,4.17
2023-03-21T21:49:27.185Z,3.90
2023-03-21T21:52:22.809Z,4.43
2023-03-21T21:55:15.626Z,4.20
2023-03-21T21:58:09.549Z,4.10
2023-03-21T22:01:02.041Z,4.13
2023-03-21T22:03:52.089Z,4.43
2023-03-21T22:06:46.958Z,4.13
2023-03-21T22:09:37.201Z,4.50
2023-03-21T22:12:27.058Z,4.07
2023-03-21T22:15:23.524Z,4.13
2023-03-21T22:18:13.517Z,4.63
2023-03-21T22:21:04.895Z,4.40
2023-03-21T22:23:54.485Z,4.27
2023-03-21T22:26:43.926Z,4.30
2023-03-21T22:29:33.888Z,4.27
2023-03-21T22:32:24.910Z,4.37
2023-03-21T22:35:15.527Z,4.93
2023-03-21T22:38:04.929Z,4.20
2023-03-21T22:40:57.565Z,3.80
2023-03-21T22:43:47.101Z,4.23
2023-03-21T22:46:36.626Z,4.63
2023-03-21T22:49:28.354Z,4.07
2023-03-21T22:52:17.675Z,4.60
2023-03-21T22:55:11.113Z,4.80
2023-03-21T22:58:01.548Z,4.37
2023-03-21T23:00:51.669Z,4.30
2023-03-21T23:03:42.106Z,4.13
2023-03-21T23:06:34.050Z,4.23
2023-03-21T23:09:24.243Z,4.47
2023-03-21T23:12:17.421Z,4.47
2023-03-21T23:15:08.198Z,4.20
2023-03-21T23:17:58.510Z,4.90
2023-03-21T23:20:52.036Z,4.53
2023-03-21T23:23:50.880Z,4.40
2023-03-21T23:26:41.630Z,4.63
2023-03-21T23:29:31.909Z,4.70
2023-03-21T23:33:15.935Z,4.33
2023-03-21T23:36:06.324Z,4.57
2023-03-21T23:38:59.481Z,5.30
2023-03-21T23:41:52.481Z,4.93
2023-03-21T23:44:42.383Z,5.27
2023-03-21T23:47:36.134Z,4.90
2023-03-21T23:50:28.663Z,5.07
2023-03-21T23:53:18.221Z,4.07
2023-03-21T23:56:16.428Z,5.40
2023-03-21T23:59:06.802Z,5.17
